createdAt,value
2023-03-15T00:01:08.587Z,7.72
2023-03-15T00:03:37.509Z,9.70
2023-03-15T00:06:05.376Z,11.18
2023-03-15T00:08:33.324Z,8.80
2023-03-15T00:11:01.087Z,11.23
2023-03-15T00:13:28.471Z,12.68
2023-03-15T00:15:59.453Z,11.57
2023-03-15T00:18:27.603Z,9.07
2023-03-15T00:20:54.724Z,12.07
2023-03-15T00:23:22.174Z,18.30
2023-03-15T00:25:50.047Z,12.48
2023-03-15T00:28:17.725Z,15.07
2023-03-15T00:30:45.173Z,16.98
2023-03-15T00:33:14.015Z,8.85
2023-03-15T00:35:43.357Z,17.35
2023-03-15T00:38:10.827Z,9.43
2023-03-15T00:40:38.452Z,19.02
2023-03-15T00:43:05.801Z,18.15
2023-03-15T00:45:33.732Z,21.17
2023-03-15T00:48:01.219Z,11.38
2023-03-15T00:50:28.587Z,13.32
2023-03-15T00:52:55.952Z,14.23
2023-03-15T00:55:23.705Z,11.52
2023-03-15T00:57:51.055Z,12.57
2023-03-15T01:00:24.361Z,10.23
2023-03-15T01:02:52.971Z,17.10
2023-03-15T01:05:20.420Z,9.43
2023-03-15T01:07:48.053Z,24.20
2023-03-15T01:10:16.054Z,11.68
2023-03-15T01:12:43.415Z,15.82
2023-03-15T01:15:14.129Z,12.02
2023-03-15T01:17:41.900Z,15.55
2023-03-15T01:20:09.834Z,17.48
2023-03-15T01:22:37.216Z,12.85
2023-03-15T01:25:04.597Z,10.48
2023-03-15T01:27:31.588Z,9.57
2023-03-15T01:29:59.282Z,12.52
2023-03-15T01:32:27.052Z,16.00
2023-03-15T01:34:54.447Z,12.75
2023-03-15T01:37:24.781Z,9.00
2023-03-15T01:39:52.336Z,11.05
2023-03-15T01:42:19.660Z,12.95
2023-03-15T01:44:57.401Z,9.20
2023-03-15T01:47:27.413Z,11.18
2023-03-15T01:52:34.748Z,7.03
2023-03-15T01:55:05.713Z,9.48
2023-03-15T01:57:36.314Z,11.48
2023-03-15T02:00:11.322Z,11.10
2023-03-15T02:02:46.581Z,19.70
2023-03-15T02:05:16.306Z,5.07
2023-03-15T02:07:49.996Z,17.17
2023-03-15T02:10:19.463Z,11.48
2023-03-15T02:12:51.400Z,15.40
2023-03-15T02:15:18.823Z,7.82
2023-03-15T02:17:47.947Z,11.50
2023-03-15T02:20:35.813Z,9.18
2023-03-15T02:23:06.746Z,8.05
2023-03-15T02:25:44.256Z,10.73
2023-03-15T02:28:13.038Z,9.88
2023-03-15T02:30:40.488Z,14.60
2023-03-15T02:33:18.516Z,9.75
2023-03-15T02:35:45.889Z,13.23
2023-03-15T02:38:13.394Z,10.13
2023-03-15T02:40:41.053Z,28.83
2023-03-15T02:43:20.189Z,9.13
2023-03-15T02:45:48.061Z,12.93
2023-03-15T02:48:15.607Z,11.32
2023-03-15T02:50:42.911Z,10.30
2023-03-15T02:53:12.442Z,15.80
2023-03-15T02:55:40.883Z,13.00
2023-03-15T02:58:07.873Z,18.45
2023-03-15T03:00:35.280Z,14.43
2023-03-15T03:03:02.348Z,12.32
2023-03-15T03:05:29.657Z,9.35
2023-03-15T03:07:57.053Z,13.10
2023-03-15T03:10:24.419Z,14.27
2023-03-15T03:12:54.520Z,18.33
2023-03-15T03:15:22.338Z,13.52
2023-03-15T03:17:49.661Z,17.23
2023-03-15T03:20:17.120Z,9.93
2023-03-15T03:22:46.954Z,9.65
2023-03-15T03:25:14.319Z,14.55
2023-03-15T03:27:41.876Z,14.88
2023-03-15T03:30:10.388Z,11.57
2023-03-15T03:32:38.004Z,17.77
2023-03-15T03:35:05.461Z,9.85
2023-03-15T03:37:32.849Z,10.38
2023-03-15T03:40:00.192Z,7.65
2023-03-15T03:42:27.262Z,10.57
2023-03-15T03:44:54.747Z,9.43
2023-03-15T03:47:21.813Z,7.68
2023-03-15T03:49:49.186Z,11.82
2023-03-15T03:52:16.534Z,10.57
2023-03-15T03:54:44.328Z,8.88
2023-03-15T03:57:11.545Z,14.45
2023-03-15T03:59:38.606Z,11.88
2023-03-15T04:02:06.004Z,10.07
2023-03-15T04:04:33.405Z,11.15
2023-03-15T04:07:00.885Z,16.42
2023-03-15T04:09:28.749Z,12.10
2023-03-15T04:11:56.117Z,14.15
2023-03-15T04:14:23.423Z,9.43
2023-03-15T04:16:50.705Z,15.30
2023-03-15T04:19:18.048Z,10.98
2023-03-15T04:21:47.443Z,13.25
2023-03-15T04:24:15.359Z,13.48
2023-03-15T04:26:42.774Z,9.95
2023-03-15T04:29:12.244Z,14.43
2023-03-15T04:31:39.582Z,10.88
2023-03-15T04:34:06.970Z,9.38
2023-03-15T04:36:34.269Z,9.88
2023-03-15T04:39:07.546Z,8.63
2023-03-15T04:41:34.944Z,11.77
2023-03-15T04:44:05.967Z,14.05
2023-03-15T04:46:34.073Z,11.80
2023-03-15T04:49:03.440Z,13.15
2023-03-15T04:51:30.736Z,14.63
2023-03-15T04:53:58.502Z,19.45
2023-03-15T04:56:26.336Z,13.40
2023-03-15T04:58:53.313Z,14.55
2023-03-15T05:01:20.682Z,16.52
2023-03-15T05:03:48.089Z,15.52
2023-03-15T05:06:15.118Z,13.88
2023-03-15T05:08:45.417Z,11.52
2023-03-15T05:11:12.912Z,18.50
2023-03-15T05:13:40.232Z,26.55
2023-03-15T05:16:07.245Z,23.92
2023-03-15T05:18:34.219Z,19.75
2023-03-15T05:21:01.521Z,30.05
2023-03-15T05:23:28.856Z,60.83
2023-03-15T05:25:56.536Z,30.25
2023-03-15T05:28:24.339Z,22.10
2023-03-15T05:30:54.883Z,30.23
2023-03-15T05:33:22.553Z,22.02
2023-03-15T05:35:49.701Z,17.17
2023-03-15T05:38:16.879Z,27.10
2023-03-15T05:40:44.835Z,22.90
2023-03-15T05:43:12.324Z,34.33
2023-03-15T05:45:40.004Z,22.08
2023-03-15T05:48:07.668Z,24.40
2023-03-15T05:50:34.962Z,30.48
2023-03-15T05:53:02.306Z,36.08
2023-03-15T05:55:29.369Z,24.20
2023-03-15T05:57:56.701Z,22.05
2023-03-15T06:00:23.765Z,20.33
2023-03-15T06:02:50.888Z,11.85
2023-03-15T06:05:18.005Z,9.80
2023-03-15T06:07:46.404Z,19.83
2023-03-15T06:10:14.226Z,10.43
2023-03-15T06:12:41.965Z,19.90
2023-03-15T06:15:09.659Z,23.08
2023-03-15T06:17:36.826Z,30.15
2023-03-15T06:20:05.132Z,40.00
2023-03-15T06:22:33.274Z,25.90
2023-03-15T06:25:00.736Z,20.15
2023-03-15T06:27:27.664Z,26.65
2023-03-15T06:29:56.122Z,23.67
2023-03-15T06:32:23.426Z,31.20
2023-03-15T06:34:50.793Z,18.58
2023-03-15T06:37:28.947Z,21.42
2023-03-15T06:40:01.825Z,30.50
2023-03-15T06:42:28.945Z,31.20
2023-03-15T06:44:55.955Z,19.92
2023-03-15T06:47:23.104Z,51.35
2023-03-15T06:49:50.684Z,32.45
2023-03-15T06:52:19.060Z,25.60
2023-03-15T06:54:46.397Z,20.08
2023-03-15T06:57:13.730Z,28.02
2023-03-15T06:59:41.001Z,16.27
2023-03-15T07:02:14.636Z,28.60
2023-03-15T07:04:41.994Z,28.25
2023-03-15T07:07:09.030Z,20.70
2023-03-15T07:09:36.332Z,38.55
2023-03-15T07:12:04.108Z,33.13
2023-03-15T07:14:31.045Z,39.42
2023-03-15T07:16:58.701Z,21.52
2023-03-15T07:19:26.055Z,22.20
2023-03-15T07:21:53.352Z,28.45
2023-03-15T07:24:20.567Z,36.70
2023-03-15T07:26:47.923Z,28.63
2023-03-15T07:29:15.368Z,35.70
2023-03-15T07:31:42.450Z,26.55
2023-03-15T07:34:09.784Z,30.75
2023-03-15T07:36:37.068Z,31.02
2023-03-15T07:39:05.060Z,21.42
2023-03-15T07:41:32.413Z,34.05
2023-03-15T07:43:59.602Z,30.63
2023-03-15T07:46:27.099Z,40.03
2023-03-15T07:48:54.604Z,44.58
2023-03-15T07:51:21.800Z,44.05
2023-03-15T07:53:49.257Z,66.15
2023-03-15T07:56:18.894Z,50.63
2023-03-15T07:58:47.156Z,51.17
2023-03-15T08:01:14.730Z,21.02
2023-03-15T08:03:45.520Z,28.60
2023-03-15T08:06:12.990Z,39.25
2023-03-15T08:08:40.673Z,37.83
2023-03-15T08:11:08.201Z,52.92
2023-03-15T08:13:35.928Z,40.33
2023-03-15T08:16:03.501Z,45.72
2023-03-15T08:18:31.494Z,25.40
2023-03-15T08:20:59.338Z,30.60
2023-03-15T08:23:28.135Z,27.75
2023-03-15T08:25:55.881Z,51.53
2023-03-15T08:28:23.412Z,53.40
2023-03-15T08:30:50.910Z,32.95
2023-03-15T08:33:20.014Z,42.88
2023-03-15T08:35:47.773Z,30.17
2023-03-15T08:38:15.343Z,50.38
2023-03-15T08:40:42.981Z,38.08
2023-03-15T08:43:10.508Z,31.13
2023-03-15T08:45:56.585Z,47.00
2023-03-15T08:48:25.943Z,37.38
2023-03-15T08:50:54.003Z,32.70
2023-03-15T08:53:22.572Z,35.25
2023-03-15T08:55:50.401Z,30.48
2023-03-15T08:58:18.226Z,29.85
2023-03-15T09:00:48.261Z,75.30
2023-03-15T09:05:45.204Z,29.92
2023-03-15T09:08:14.190Z,47.85
2023-03-15T09:10:42.888Z,57.33
2023-03-15T09:13:11.265Z,60.55
2023-03-15T09:15:38.802Z,43.58
2023-03-15T09:18:06.765Z,65.88
2023-03-15T09:20:34.622Z,56.83
2023-03-15T09:23:02.866Z,49.90
2023-03-15T09:25:31.061Z,39.88
2023-03-15T09:27:58.962Z,31.88
2023-03-15T09:30:27.198Z,29.63
2023-03-15T09:32:54.912Z,50.13
2023-03-15T09:35:23.138Z,42.38
2023-03-15T09:37:51.410Z,33.92
2023-03-15T09:40:40.086Z,49.17
2023-03-15T09:43:07.730Z,55.78
2023-03-15T09:45:59.949Z,27.08
2023-03-15T09:48:38.098Z,25.55
2023-03-15T09:51:05.756Z,31.10
2023-03-15T09:54:05.341Z,26.42
2023-03-15T09:56:58.196Z,32.85
2023-03-15T09:59:43.652Z,28.88
2023-03-15T10:02:15.255Z,59.53
2023-03-15T10:04:49.075Z,18.55
2023-03-15T10:07:17.628Z,45.30
2023-03-15T10:09:45.249Z,35.78
2023-03-15T10:12:29.805Z,29.00
2023-03-15T10:15:38.681Z,19.38
2023-03-15T10:18:06.194Z,31.70
2023-03-15T10:20:36.096Z,20.23
2023-03-15T10:23:03.583Z,26.48
2023-03-15T10:25:31.840Z,38.13
2023-03-15T10:28:27.971Z,43.15
2023-03-15T10:30:59.969Z,20.55
2023-03-15T10:33:35.091Z,32.30
2023-03-15T10:36:11.036Z,37.60
2023-03-15T10:38:39.467Z,33.22
2023-03-15T10:41:07.854Z,14.55
2023-03-15T10:43:38.344Z,23.30
2023-03-15T10:46:06.189Z,32.60
2023-03-15T10:48:36.406Z,50.13
2023-03-15T10:51:23.013Z,25.85
2023-03-15T10:54:21.230Z,38.53
2023-03-15T10:57:02.014Z,24.33
2023-03-15T10:59:31.049Z,23.35
2023-03-15T11:02:22.521Z,29.20
2023-03-15T11:04:52.181Z,86.97
2023-03-15T11:07:19.828Z,70.70
2023-03-15T11:09:55.010Z,86.15
2023-03-15T11:12:29.790Z,96.13
2023-03-15T11:15:03.491Z,95.15
2023-03-15T11:17:36.220Z,82.43
2023-03-15T11:20:17.426Z,84.20
2023-03-15T11:22:45.029Z,92.05
2023-03-15T11:25:17.539Z,106.97
2023-03-15T11:27:52.026Z,80.47
2023-03-15T11:30:22.569Z,110.25
2023-03-15T11:32:50.555Z,34.28
2023-03-15T11:35:29.009Z,50.67
2023-03-15T11:38:15.939Z,26.63
2023-03-15T11:40:50.070Z,37.92
2023-03-15T11:43:55.053Z,29.50
2023-03-15T11:46:32.434Z,32.25
2023-03-15T11:49:37.296Z,26.98
2023-03-15T11:52:05.461Z,26.40
2023-03-15T11:54:33.151Z,34.38
2023-03-15T11:57:06.352Z,26.15
2023-03-15T11:59:46.136Z,41.92
2023-03-15T12:02:16.098Z,38.47
2023-03-15T12:04:52.143Z,50.60
2023-03-15T12:07:20.052Z,41.17
2023-03-15T12:09:47.328Z,47.97
2023-03-15T12:12:30.553Z,33.28
2023-03-15T12:15:05.488Z,47.35
2023-03-15T12:17:37.971Z,42.90
2023-03-15T12:20:12.222Z,60.85
2023-03-15T12:22:44.388Z,44.95
2023-03-15T12:25:54.841Z,33.20
2023-03-15T12:28:36.480Z,27.83
2023-03-15T12:31:08.335Z,56.28
2023-03-15T12:33:47.290Z,31.48
2023-03-15T12:36:42.777Z,36.30
2023-03-15T12:39:16.847Z,32.65
2023-03-15T12:41:50.133Z,33.35
2023-03-15T12:44:34.035Z,46.38
2023-03-15T12:47:03.415Z,29.85
2023-03-15T12:49:37.885Z,38.35
2023-03-15T12:52:26.965Z,28.20
2023-03-15T12:55:19.651Z,37.70
2023-03-15T12:57:58.232Z,41.55
2023-03-15T13:00:29.416Z,37.42
2023-03-15T13:03:08.216Z,60.70
2023-03-15T13:06:04.275Z,35.20
2023-03-15T13:09:12.211Z,25.17
2023-03-15T13:12:01.565Z,26.67
2023-03-15T13:14:41.731Z,39.28
2023-03-15T13:17:19.220Z,61.33
2023-03-15T13:19:50.444Z,36.65
2023-03-15T13:22:55.926Z,30.05
2023-03-15T13:25:32.540Z,51.90
2023-03-15T13:30:36.367Z,44.67
2023-03-15T13:33:07.238Z,61.63
2023-03-15T13:35:35.088Z,58.10
2023-03-15T13:38:36.076Z,28.60
2023-03-15T13:46:07.612Z,31.55
2023-03-15T13:48:36.620Z,23.50
2023-03-15T13:51:26.579Z,38.53
2023-03-15T13:54:01.933Z,35.53
2023-03-15T13:56:48.583Z,42.72
2023-03-15T13:59:17.247Z,30.35
2023-03-15T14:01:45.047Z,39.13
2023-03-15T14:04:18.364Z,31.58
2023-03-15T14:06:46.426Z,30.90
2023-03-15T14:09:23.137Z,43.72
2023-03-15T14:12:02.165Z,36.08
2023-03-15T14:14:31.372Z,29.85
2023-03-15T14:17:05.916Z,33.03
2023-03-15T14:19:35.078Z,34.30
2023-03-15T14:22:04.835Z,23.27
2023-03-15T14:27:17.929Z,35.83
2023-03-15T14:29:54.601Z,15.00
2023-03-15T14:32:25.166Z,27.15
2023-03-15T14:35:06.173Z,34.00
2023-03-15T14:37:37.614Z,51.75
2023-03-15T14:40:21.090Z,46.28
2023-03-15T14:42:49.443Z,56.78
2023-03-15T14:45:17.764Z,62.35
2023-03-15T14:47:56.648Z,38.67
2023-03-15T14:50:25.494Z,49.22
2023-03-15T14:52:54.352Z,23.85
2023-03-15T14:55:26.176Z,40.72
2023-03-15T14:57:53.880Z,48.33
2023-03-15T15:00:21.939Z,46.60
2023-03-15T15:02:54.843Z,32.38
2023-03-15T15:05:25.484Z,25.27
2023-03-15T15:08:03.173Z,25.90
2023-03-15T15:10:31.629Z,44.72
2023-03-15T15:13:06.543Z,29.83
2023-03-15T15:15:47.455Z,25.58
2023-03-15T15:18:21.892Z,38.33
2023-03-15T15:20:51.553Z,11.18
2023-03-15T15:23:21.050Z,29.98
2023-03-15T15:25:50.744Z,24.92
2023-03-15T15:28:33.206Z,43.50
2023-03-15T15:31:01.608Z,31.83
2023-03-15T15:33:29.364Z,32.35
2023-03-15T15:35:57.646Z,20.33
2023-03-15T15:38:32.338Z,30.02
2023-03-15T15:40:59.853Z,38.80
2023-03-15T15:43:27.494Z,22.98
2023-03-15T15:45:55.196Z,22.65
2023-03-15T15:48:23.009Z,29.35
2023-03-15T15:50:51.165Z,28.52
2023-03-15T15:53:19.399Z,25.05
2023-03-15T15:55:46.984Z,39.35
2023-03-15T15:58:15.444Z,26.15
2023-03-15T16:00:43.058Z,20.40
2023-03-15T16:03:16.858Z,19.23
2023-03-15T16:05:44.563Z,12.93
2023-03-15T16:08:21.938Z,19.08
2023-03-15T16:10:50.037Z,12.25
2023-03-15T16:13:18.052Z,22.58
2023-03-15T16:15:46.697Z,15.52
2023-03-15T16:18:15.458Z,34.53
2023-03-15T16:20:43.679Z,14.90
2023-03-15T16:23:22.723Z,19.90
2023-03-15T16:25:54.276Z,20.77
2023-03-15T16:28:22.430Z,21.65
2023-03-15T16:30:50.138Z,41.85
2023-03-15T16:33:20.218Z,38.00
2023-03-15T16:35:53.611Z,48.20
2023-03-15T16:38:32.429Z,107.90
2023-03-15T16:41:01.457Z,114.82
2023-03-15T16:43:29.117Z,212.23
2023-03-15T16:45:56.849Z,216.00
2023-03-15T16:48:24.611Z,205.57
2023-03-15T16:50:52.545Z,184.60
2023-03-15T16:53:20.403Z,194.15
2023-03-15T16:55:48.354Z,172.20
2023-03-15T16:58:18.741Z,184.95
2023-03-15T17:00:48.492Z,112.35
2023-03-15T17:03:16.955Z,116.45
2023-03-15T17:05:47.238Z,109.88
2023-03-15T17:08:20.317Z,133.05
2023-03-15T17:10:49.460Z,115.75
2023-03-15T17:13:28.688Z,105.22
2023-03-15T17:15:56.103Z,123.15
2023-03-15T17:18:24.223Z,152.27
2023-03-15T17:20:52.101Z,107.88
2023-03-15T17:23:21.227Z,152.85
2023-03-15T17:25:49.710Z,134.70
2023-03-15T17:28:17.392Z,101.25
2023-03-15T17:30:45.211Z,120.40
2023-03-15T17:33:13.027Z,102.50
2023-03-15T17:35:50.149Z,91.70
2023-03-15T17:38:19.395Z,84.70
2023-03-15T17:40:47.167Z,95.40
2023-03-15T17:43:16.031Z,106.53
2023-03-15T17:45:44.049Z,119.45
2023-03-15T17:48:11.719Z,124.80
2023-03-15T17:50:39.856Z,135.43
2023-03-15T17:53:21.223Z,91.60
2023-03-15T17:55:49.524Z,84.13
2023-03-15T17:58:21.320Z,91.72
2023-03-15T18:00:49.405Z,86.22
2023-03-15T18:03:17.056Z,83.65
2023-03-15T18:05:44.988Z,94.30
2023-03-15T18:08:13.408Z,88.30
2023-03-15T18:10:42.497Z,85.35
2023-03-15T18:13:14.043Z,82.50
2023-03-15T18:15:41.852Z,90.40
2023-03-15T18:18:09.920Z,89.55
2023-03-15T18:20:37.660Z,88.47
2023-03-15T18:23:05.444Z,112.93
2023-03-15T18:25:34.380Z,120.13
2023-03-15T18:28:02.965Z,116.35
2023-03-15T18:30:31.993Z,160.25
2023-03-15T18:32:59.868Z,153.93
2023-03-15T18:35:29.737Z,150.80
2023-03-15T18:37:58.075Z,184.93
2023-03-15T18:40:27.032Z,176.43
2023-03-15T18:42:55.179Z,143.25
2023-03-15T18:45:27.143Z,147.32
2023-03-15T18:47:54.834Z,155.75
2023-03-15T18:50:22.864Z,146.23
2023-03-15T18:52:51.450Z,134.48
2023-03-15T18:55:22.168Z,129.32
2023-03-15T18:57:50.045Z,86.78
2023-03-15T19:00:23.921Z,113.95
2023-03-15T19:02:51.690Z,126.03
2023-03-15T19:05:19.489Z,132.18
2023-03-15T19:07:47.845Z,121.72
2023-03-15T19:10:16.996Z,112.78
2023-03-15T19:12:46.125Z,117.55
2023-03-15T19:15:17.435Z,105.85
2023-03-15T19:17:45.907Z,106.68
2023-03-15T19:20:14.181Z,101.70
2023-03-15T19:22:41.669Z,118.57
2023-03-15T19:25:14.116Z,101.93
2023-03-15T19:27:44.908Z,89.45
2023-03-15T19:30:16.451Z,93.38
2023-03-15T19:32:45.767Z,76.22
2023-03-15T19:35:13.456Z,59.75
2023-03-15T19:37:42.622Z,70.32
2023-03-15T19:40:12.104Z,64.60
2023-03-15T19:42:39.794Z,60.45
2023-03-15T19:45:07.862Z,51.53
2023-03-15T19:47:35.654Z,46.55
2023-03-15T19:50:03.417Z,43.95
2023-03-15T19:52:33.258Z,49.47
2023-03-15T19:55:01.645Z,46.50
2023-03-15T19:57:29.652Z,50.70
2023-03-15T19:59:57.245Z,63.78
2023-03-15T20:02:24.824Z,57.20
2023-03-15T20:04:52.401Z,63.70
2023-03-15T20:07:19.985Z,52.92
2023-03-15T20:09:47.702Z,46.45
2023-03-15T20:12:16.177Z,47.90
2023-03-15T20:14:44.309Z,48.60
2023-03-15T20:17:12.005Z,50.67
2023-03-15T20:19:39.662Z,48.92
2023-03-15T20:22:07.390Z,36.17
2023-03-15T20:24:36.730Z,30.35
2023-03-15T20:27:04.614Z,33.22
2023-03-15T20:29:32.195Z,29.17
2023-03-15T20:32:04.506Z,21.15
2023-03-15T20:34:32.337Z,23.17
2023-03-15T20:37:00.230Z,18.67
2023-03-15T20:39:28.154Z,14.43
2023-03-15T20:41:55.827Z,10.25
2023-03-15T20:44:23.525Z,9.63
2023-03-15T20:46:55.035Z,12.00
2023-03-15T20:49:22.832Z,9.38
2023-03-15T20:51:50.520Z,14.50
2023-03-15T20:54:18.450Z,7.57
2023-03-15T20:56:46.083Z,10.18
2023-03-15T20:59:14.180Z,11.68
2023-03-15T21:01:41.888Z,8.38
2023-03-15T21:04:09.535Z,7.38
2023-03-15T21:06:37.327Z,11.05
2023-03-15T21:09:05.364Z,13.95
2023-03-15T21:11:33.515Z,9.95
2023-03-15T21:14:01.594Z,8.68
2023-03-15T21:16:29.242Z,7.03
2023-03-15T21:18:57.117Z,9.85
2023-03-15T21:21:24.694Z,11.80
2023-03-15T21:23:52.356Z,11.48
2023-03-15T21:26:20.112Z,12.55
2023-03-15T21:28:47.950Z,8.85
2023-03-15T21:31:15.715Z,9.80
2023-03-15T21:33:43.785Z,10.63
2023-03-15T21:36:11.529Z,9.88
2023-03-15T21:38:39.454Z,9.27
2023-03-15T21:41:09.119Z,11.15
2023-03-15T21:43:37.131Z,8.88
2023-03-15T21:46:07.326Z,7.90
2023-03-15T21:48:35.241Z,8.48
2023-03-15T21:51:03.135Z,10.90
2023-03-15T21:53:31.477Z,10.27
2023-03-15T21:56:02.214Z,10.05
2023-03-15T21:58:30.007Z,9.95
2023-03-15T22:00:58.701Z,9.95
2023-03-15T22:03:26.583Z,8.65
2023-03-15T22:05:54.217Z,8.38
2023-03-15T22:08:21.807Z,8.50
2023-03-15T22:10:52.687Z,11.43
2023-03-15T22:13:21.036Z,11.85
2023-03-15T22:15:48.719Z,10.98
2023-03-15T22:18:16.443Z,6.05
2023-03-15T22:20:44.122Z,18.48
2023-03-15T22:23:11.818Z,10.73
2023-03-15T22:25:40.255Z,14.55
2023-03-15T22:28:07.832Z,8.68
2023-03-15T22:30:35.625Z,13.23
2023-03-15T22:33:03.402Z,10.25
2023-03-15T22:35:31.192Z,7.82
2023-03-15T22:37:58.919Z,10.70
2023-03-15T22:40:28.240Z,7.97
2023-03-15T22:42:57.586Z,11.38
2023-03-15T22:45:26.191Z,6.05
2023-03-15T22:47:53.980Z,10.63
2023-03-15T22:50:21.610Z,5.90
2023-03-15T22:52:51.849Z,11.45
2023-03-15T22:55:20.744Z,9.82
2023-03-15T22:57:48.683Z,9.80
2023-03-15T23:00:21.240Z,9.15
2023-03-15T23:02:49.012Z,13.77
2023-03-15T23:05:17.960Z,15.48
2023-03-15T23:07:45.555Z,13.27
2023-03-15T23:10:13.442Z,12.15
2023-03-15T23:12:41.693Z,8.82
2023-03-15T23:15:10.167Z,8.52
2023-03-15T23:17:38.020Z,13.63
2023-03-15T23:20:07.477Z,9.40
2023-03-15T23:22:35.187Z,11.35
2023-03-15T23:25:03.104Z,10.68
2023-03-15T23:27:31.003Z,8.88
2023-03-15T23:29:58.664Z,10.77
2023-03-15T23:32:26.339Z,7.15
2023-03-15T23:34:54.136Z,8.80
2023-03-15T23:37:22.392Z,12.90
2023-03-15T23:39:50.012Z,9.35
2023-03-15T23:42:17.760Z,8.70
2023-03-15T23:44:45.410Z,10.93
2023-03-15T23:47:13.143Z,12.52
2023-03-15T23:49:40.968Z,12.60
2023-03-15T23:52:08.703Z,9.40
2023-03-15T23:54:41.299Z,13.80
2023-03-15T23:57:10.155Z,12.85
2023-03-15T23:59:38.429Z,8.48
